sensor_id;sensor_type;location;lat;lon;timestamp;pressure;altitude;pressure_sealevel;temperature;humidity
59168;BME280;44948;55.046;73.266;2023-04-07T00:02:45;99954.91;;;-1.05;77.69
59168;BME280;44948;55.046;73.266;2023-04-07T00:05:48;99935.31;;;-1.09;77.33
59168;BME280;44948;55.046;73.266;2023-04-07T00:08:50;99947.19;;;-1.05;77.62
59168;BME280;44948;55.046;73.266;2023-04-07T00:11:52;99950.75;;;-1.09;78.16
59168;BME280;44948;55.046;73.266;2023-04-07T00:15:32;99955.06;;;-0.80;78.43
59168;BME280;44948;55.046;73.266;2023-04-07T00:18:35;99973.50;;;-0.93;79.01
59168;BME280;44948;55.046;73.266;2023-04-07T00:21:37;99977.72;;;-1.22;79.19
59168;BME280;44948;55.046;73.266;2023-04-07T00:24:39;99990.97;;;-1.37;79.35
59168;BME280;44948;55.046;73.266;2023-04-07T00:27:51;99987.59;;;-1.39;80.39
59168;BME280;44948;55.046;73.266;2023-04-07T00:30:54;100002.31;;;-1.44;80.85
59168;BME280;44948;55.046;73.266;2023-04-07T00:33:59;100008.44;;;-1.48;81.37
59168;BME280;44948;55.046;73.266;2023-04-07T00:37:08;99994.19;;;-1.62;81.67
59168;BME280;44948;55.046;73.266;2023-04-07T00:40:31;100006.41;;;-2.05;81.70
59168;BME280;44948;55.046;73.266;2023-04-07T00:43:33;100014.09;;;-2.05;82.27
59168;BME280;44948;55.046;73.266;2023-04-07T00:46:36;99994.72;;;-2.17;82.31
59168;BME280;44948;55.046;73.266;2023-04-07T00:49:38;100014.63;;;-2.27;82.78
59168;BME280;44948;55.046;73.266;2023-04-07T00:52:41;100006.06;;;-2.27;83.82
59168;BME280;44948;55.046;73.266;2023-04-07T00:55:49;100009.47;;;-2.27;84.44
59168;BME280;44948;55.046;73.266;2023-04-07T00:58:51;100007.94;;;-2.34;84.38
59168;BME280;44948;55.046;73.266;2023-04-07T01:02:15;100015.47;;;-2.26;83.78
59168;BME280;44948;55.046;73.266;2023-04-07T01:05:52;100019.22;;;-2.41;83.59
59168;BME280;44948;55.046;73.266;2023-04-07T01:12:14;100039.97;;;-2.11;83.83
59168;BME280;44948;55.046;73.266;2023-04-07T01:15:33;100040.31;;;-2.27;84.20
59168;BME280;44948;55.046;73.266;2023-04-07T01:18:37;100057.31;;;-2.23;82.85
59168;BME280;44948;55.046;73.266;2023-04-07T01:21:43;100061.03;;;-2.36;81.94
59168;BME280;44948;55.046;73.266;2023-04-07T01:31:46;100067.91;;;-2.36;82.14
59168;BME280;44948;55.046;73.266;2023-04-07T01:35:33;100087.78;;;-2.06;81.34
59168;BME280;44948;55.046;73.266;2023-04-07T01:38:47;100077.22;;;-2.31;81.20
59168;BME280;44948;55.046;73.266;2023-04-07T01:41:52;100077.94;;;-2.26;81.26
59168;BME280;44948;55.046;73.266;2023-04-07T01:45:34;100095.94;;;-1.87;80.31
59168;BME280;44948;55.046;73.266;2023-04-07T01:48:38;100096.28;;;-2.02;80.27
59168;BME280;44948;55.046;73.266;2023-04-07T01:51:41;100097.19;;;-2.05;80.44
59168;BME280;44948;55.046;73.266;2023-04-07T01:54:44;100102.44;;;-2.09;79.32
59168;BME280;44948;55.046;73.266;2023-04-07T01:57:47;100113.06;;;-2.26;77.71
59168;BME280;44948;55.046;73.266;2023-04-07T02:00:53;100103.66;;;-2.26;77.85
59168;BME280;44948;55.046;73.266;2023-04-07T02:04:06;100125.66;;;-2.14;76.40
59168;BME280;44948;55.046;73.266;2023-04-07T02:07:19;100122.66;;;-2.33;75.60
59168;BME280;44948;55.046;73.266;2023-04-07T02:10:32;100140.13;;;-2.50;75.97
59168;BME280;44948;55.046;73.266;2023-04-07T02:13:36;100117.13;;;-2.58;75.61
59168;BME280;44948;55.046;73.266;2023-04-07T02:16:50;100119.59;;;-2.53;75.52
59168;BME280;44948;55.046;73.266;2023-04-07T02:20:32;100148.66;;;-2.08;74.17
59168;BME280;44948;55.046;73.266;2023-04-07T02:23:36;100163.56;;;-2.25;72.89
59168;BME280;44948;55.046;73.266;2023-04-07T02:26:49;100149.34;;;-2.41;72.76
59168;BME280;44948;55.046;73.266;2023-04-07T02:30:32;100164.63;;;-2.34;72.12
59168;BME280;44948;55.046;73.266;2023-04-07T02:33:34;100174.06;;;-2.36;72.72
59168;BME280;44948;55.046;73.266;2023-04-07T02:36:36;100175.25;;;-2.54;71.73
59168;BME280;44948;55.046;73.266;2023-04-07T02:39:41;100195.28;;;-2.72;72.37
59168;BME280;44948;55.046;73.266;2023-04-07T02:42:49;100192.06;;;-2.82;72.21
59168;BME280;44948;55.046;73.266;2023-04-07T02:45:51;100200.69;;;-2.88;72.29
59168;BME280;44948;55.046;73.266;2023-04-07T02:48:54;100189.88;;;-3.06;71.53
59168;BME280;44948;55.046;73.266;2023-04-07T02:51:56;100212.97;;;-3.06;72.46
59168;BME280;44948;55.046;73.266;2023-04-07T02:55:31;100224.56;;;-2.83;72.73
59168;BME280;44948;55.046;73.266;2023-04-07T02:58:34;100222.44;;;-3.10;71.58
59168;BME280;44948;55.046;73.266;2023-04-07T03:01:36;100247.47;;;-3.24;71.91
59168;BME280;44948;55.046;73.266;2023-04-07T03:04:39;100230.31;;;-3.22;72.33
59168;BME280;44948;55.046;73.266;2023-04-07T03:07:42;100235.47;;;-3.24;71.93
59168;BME280;44948;55.046;73.266;2023-04-07T03:10:45;100244.22;;;-3.37;71.97
59168;BME280;44948;55.046;73.266;2023-04-07T03:13:49;100259.72;;;-3.45;71.16
59168;BME280;44948;55.046;73.266;2023-04-07T03:16:51;100246.34;;;-3.65;71.32
59168;BME280;44948;55.046;73.266;2023-04-07T03:20:31;100250.91;;;-3.25;71.56
59168;BME280;44948;55.046;73.266;2023-04-07T03:23:44;100254.50;;;-3.38;70.80
59168;BME280;44948;55.046;73.266;2023-04-07T03:26:47;100277.06;;;-3.62;69.46
59168;BME280;44948;55.046;73.266;2023-04-07T03:30:31;100286.75;;;-3.88;70.42
59168;BME280;44948;55.046;73.266;2023-04-07T03:33:34;100277.16;;;-3.71;69.79
59168;BME280;44948;55.046;73.266;2023-04-07T03:36:36;100293.63;;;-3.92;68.48
59168;BME280;44948;55.046;73.266;2023-04-07T03:39:40;100303.16;;;-4.05;68.21
59168;BME280;44948;55.046;73.266;2023-04-07T03:43:04;100301.00;;;-4.43;67.99
59168;BME280;44948;55.046;73.266;2023-04-07T03:46:22;100308.81;;;-4.59;67.88
59168;BME280;44948;55.046;73.266;2023-04-07T03:49:30;100335.22;;;-4.50;68.67
59168;BME280;44948;55.046;73.266;2023-04-07T03:52:37;100331.00;;;-4.58;68.78
59168;BME280;44948;55.046;73.266;2023-04-07T03:55:53;100349.72;;;-4.52;68.43
59168;BME280;44948;55.046;73.266;2023-04-07T03:59:12;100342.84;;;-4.45;68.65
59168;BME280;44948;55.046;73.266;2023-04-07T04:02:31;100362.44;;;-4.43;67.28
59168;BME280;44948;55.046;73.266;2023-04-07T04:05:39;100374.50;;;-4.57;68.17
59168;BME280;44948;55.046;73.266;2023-04-07T04:08:45;100378.53;;;-4.27;68.45
59168;BME280;44948;55.046;73.266;2023-04-07T04:11:48;100373.41;;;-4.27;66.92
59168;BME280;44948;55.046;73.266;2023-04-07T04:15:32;100376.59;;;-4.02;66.45
59168;BME280;44948;55.046;73.266;2023-04-07T04:18:36;100376.50;;;-3.93;66.95
59168;BME280;44948;55.046;73.266;2023-04-07T04:21:45;100395.34;;;-3.98;64.80
59168;BME280;44948;55.046;73.266;2023-04-07T04:25:31;100407.06;;;-3.76;64.04
59168;BME280;44948;55.046;73.266;2023-04-07T04:28:35;100399.38;;;-3.76;64.98
59168;BME280;44948;55.046;73.266;2023-04-07T04:31:50;100403.91;;;-3.99;64.75
59168;BME280;44948;55.046;73.266;2023-04-07T04:35:31;100414.69;;;-3.67;65.16
59168;BME280;44948;55.046;73.266;2023-04-07T04:38:49;100414.00;;;-3.84;64.86
59168;BME280;44948;55.046;73.266;2023-04-07T04:41:55;100429.53;;;-4.04;63.79
59168;BME280;44948;55.046;73.266;2023-04-07T04:45:32;100438.25;;;-4.25;63.52
59168;BME280;44948;55.046;73.266;2023-04-07T04:48:35;100427.78;;;-3.97;64.45
59168;BME280;44948;55.046;73.266;2023-04-07T04:51:40;100440.44;;;-3.81;63.32
59168;BME280;44948;55.046;73.266;2023-04-07T04:55:31;100450.41;;;-2.79;63.06
59168;BME280;44948;55.046;73.266;2023-04-07T04:58:34;100454.53;;;-2.69;62.18
59168;BME280;44948;55.046;73.266;2023-04-07T05:01:40;100450.81;;;-3.13;62.92
59168;BME280;44948;55.046;73.266;2023-04-07T05:04:46;100469.09;;;-3.42;63.05
59168;BME280;44948;55.046;73.266;2023-04-07T05:07:57;100464.72;;;-3.31;62.64
59168;BME280;44948;55.046;73.266;2023-04-07T05:11:08;100482.00;;;-3.50;62.20
59168;BME280;44948;55.046;73.266;2023-04-07T05:14:13;100470.00;;;-3.45;62.29
59168;BME280;44948;55.046;73.266;2023-04-07T05:17:26;100473.41;;;-3.46;62.79
59168;BME280;44948;55.046;73.266;2023-04-07T05:20:31;100481.66;;;-3.19;62.44
59168;BME280;44948;55.046;73.266;2023-04-07T05:23:34;100494.06;;;-2.81;62.50
59168;BME280;44948;55.046;73.266;2023-04-07T05:26:38;100484.78;;;-2.30;60.88
59168;BME280;44948;55.046;73.266;2023-04-07T05:29:41;100498.16;;;-2.08;58.26
59168;BME280;44948;55.046;73.266;2023-04-07T05:32:53;100508.03;;;-2.39;56.52
59168;BME280;44948;55.046;73.266;2023-04-07T05:36:04;100512.31;;;-2.39;58.10
59168;BME280;44948;55.046;73.266;2023-04-07T05:39:07;100526.41;;;-2.06;57.97
59168;BME280;44948;55.046;73.266;2023-04-07T05:42:10;100525.53;;;-2.07;56.96
59168;BME280;44948;55.046;73.266;2023-04-07T05:45:32;100521.44;;;-2.18;56.87
59168;BME280;44948;55.046;73.266;2023-04-07T05:48:34;100539.84;;;-1.89;57.56
59168;BME280;44948;55.046;73.266;2023-04-07T05:51:38;100538.22;;;-1.42;55.91
59168;BME280;44948;55.046;73.266;2023-04-07T05:54:45;100537.50;;;-1.50;54.75
59168;BME280;44948;55.046;73.266;2023-04-07T05:57:49;100545.28;;;-1.55;55.47
59168;BME280;44948;55.046;73.266;2023-04-07T06:00:58;100555.13;;;-1.80;54.64
59168;BME280;44948;55.046;73.266;2023-04-07T06:04:01;100558.22;;;-2.13;56.20
59168;BME280;44948;55.046;73.266;2023-04-07T06:07:04;100557.34;;;-2.14;56.17
59168;BME280;44948;55.046;73.266;2023-04-07T06:10:31;100542.50;;;-1.94;55.36
59168;BME280;44948;55.046;73.266;2023-04-07T06:13:33;100555.09;;;-1.77;55.36
59168;BME280;44948;55.046;73.266;2023-04-07T06:16:36;100569.47;;;-1.65;53.88
59168;BME280;44948;55.046;73.266;2023-04-07T06:19:38;100564.88;;;-1.46;54.75
59168;BME280;44948;55.046;73.266;2023-04-07T06:22:41;100581.50;;;-1.67;53.36
59168;BME280;44948;55.046;73.266;2023-04-07T06:25:48;100582.63;;;-1.86;53.86
59168;BME280;44948;55.046;73.266;2023-04-07T06:28:53;100583.91;;;-1.58;53.46
59168;BME280;44948;55.046;73.266;2023-04-07T06:31:55;100583.59;;;-1.38;53.32
59168;BME280;44948;55.046;73.266;2023-04-07T06:35:31;100578.09;;;-1.18;52.90
59168;BME280;44948;55.046;73.266;2023-04-07T06:38:33;100598.38;;;-1.51;52.15
59168;BME280;44948;55.046;73.266;2023-04-07T06:41:37;100606.09;;;-1.49;51.51
59168;BME280;44948;55.046;73.266;2023-04-07T06:44:39;100612.94;;;-1.48;50.73
59168;BME280;44948;55.046;73.266;2023-04-07T06:47:42;100608.16;;;-1.73;49.85
59168;BME280;44948;55.046;73.266;2023-04-07T06:50:50;100622.66;;;-1.69;49.99
59168;BME280;44948;55.046;73.266;2023-04-07T06:53:53;100638.25;;;-1.79;50.74
59168;BME280;44948;55.046;73.266;2023-04-07T06:57:05;100637.47;;;-1.83;49.44
59168;BME280;44948;55.046;73.266;2023-04-07T07:00:31;100629.56;;;-2.34;49.99
59168;BME280;44948;55.046;73.266;2023-04-07T07:03:33;100648.50;;;-2.42;50.44
59168;BME280;44948;55.046;73.266;2023-04-07T07:06:35;100631.88;;;-2.14;50.51
59168;BME280;44948;55.046;73.266;2023-04-07T07:09:38;100641.13;;;-1.99;51.57
59168;BME280;44948;55.046;73.266;2023-04-07T07:12:40;100635.63;;;-1.75;51.29
59168;BME280;44948;55.046;73.266;2023-04-07T07:15:43;100653.88;;;-1.93;48.20
59168;BME280;44948;55.046;73.266;2023-04-07T07:18:55;100659.97;;;-1.99;48.85
59168;BME280;44948;55.046;73.266;2023-04-07T07:21:57;100659.41;;;-2.24;50.34
59168;BME280;44948;55.046;73.266;2023-04-07T07:25:31;100667.56;;;-1.93;49.17
59168;BME280;44948;55.046;73.266;2023-04-07T07:28:38;100658.25;;;-1.98;49.60
59168;BME280;44948;55.046;73.266;2023-04-07T07:31:41;100667.25;;;-2.33;48.48
59168;BME280;44948;55.046;73.266;2023-04-07T07:34:43;100673.28;;;-2.38;49.49
59168;BME280;44948;55.046;73.266;2023-04-07T07:37:46;100690.50;;;-2.46;48.36
59168;BME280;44948;55.046;73.266;2023-04-07T07:40:48;100699.03;;;-2.44;49.46
59168;BME280;44948;55.046;73.266;2023-04-07T07:43:51;100694.72;;;-2.41;49.10
59168;BME280;44948;55.046;73.266;2023-04-07T07:47:01;100690.44;;;-2.40;48.30
59168;BME280;44948;55.046;73.266;2023-04-07T07:50:31;100701.88;;;-2.70;48.70
59168;BME280;44948;55.046;73.266;2023-04-07T07:53:33;100708.03;;;-2.08;50.19
59168;BME280;44948;55.046;73.266;2023-04-07T07:56:35;100724.34;;;-2.09;48.08
59168;BME280;44948;55.046;73.266;2023-04-07T07:59:38;100719.13;;;-2.05;47.79
59168;BME280;44948;55.046;73.266;2023-04-07T08:02:41;100719.88;;;-1.95;47.37
59168;BME280;44948;55.046;73.266;2023-04-07T08:05:56;100712.34;;;-2.10;48.08
59168;BME280;44948;55.046;73.266;2023-04-07T08:09:03;100732.00;;;-2.06;48.24
59168;BME280;44948;55.046;73.266;2023-04-07T08:12:07;100718.63;;;-2.34;47.23
59168;BME280;44948;55.046;73.266;2023-04-07T08:15:32;100728.84;;;-2.30;47.98
59168;BME280;44948;55.046;73.266;2023-04-07T08:18:34;100727.00;;;-2.15;46.38
59168;BME280;44948;55.046;73.266;2023-04-07T08:21:37;100735.81;;;-2.41;46.46
59168;BME280;44948;55.046;73.266;2023-04-07T08:24:40;100731.41;;;-2.28;47.16
59168;BME280;44948;55.046;73.266;2023-04-07T08:27:42;100737.34;;;-2.25;46.81
59168;BME280;44948;55.046;73.266;2023-04-07T08:30:45;100743.53;;;-2.42;45.99
59168;BME280;44948;55.046;73.266;2023-04-07T08:33:47;100742.63;;;-2.37;46.26
59168;BME280;44948;55.046;73.266;2023-04-07T08:36:54;100737.63;;;-2.50;45.13
59168;BME280;44948;55.046;73.266;2023-04-07T08:40:31;100749.41;;;-2.30;44.65
59168;BME280;44948;55.046;73.266;2023-04-07T08:43:38;100754.66;;;-2.42;44.67
59168;BME280;44948;55.046;73.266;2023-04-07T08:46:41;100757.47;;;-2.65;46.11
59168;BME280;44948;55.046;73.266;2023-04-07T08:49:44;100763.28;;;-2.47;45.23
59168;BME280;44948;55.046;73.266;2023-04-07T08:52:56;100761.78;;;-2.71;44.49
59168;BME280;44948;55.046;73.266;2023-04-07T08:56:04;100772.97;;;-2.77;43.71
59168;BME280;44948;55.046;73.266;2023-04-07T08:59:14;100765.09;;;-2.57;45.08
59168;BME280;44948;55.046;73.266;2023-04-07T09:02:31;100777.75;;;-2.39;43.16
59168;BME280;44948;55.046;73.266;2023-04-07T09:05:37;100769.59;;;-2.82;42.53
59168;BME280;44948;55.046;73.266;2023-04-07T09:08:40;100766.91;;;-2.71;43.51
59168;BME280;44948;55.046;73.266;2023-04-07T09:11:42;100779.81;;;-2.77;44.03
59168;BME280;44948;55.046;73.266;2023-04-07T09:14:45;100774.72;;;-2.85;44.27
59168;BME280;44948;55.046;73.266;2023-04-07T09:17:47;100795.06;;;-2.61;44.11
59168;BME280;44948;55.046;73.266;2023-04-07T09:20:58;100796.81;;;-2.63;42.75
59168;BME280;44948;55.046;73.266;2023-04-07T09:24:22;100797.88;;;-2.90;42.38
59168;BME280;44948;55.046;73.266;2023-04-07T09:27:30;100789.41;;;-3.01;42.99
59168;BME280;44948;55.046;73.266;2023-04-07T09:30:34;100793.78;;;-3.14;42.73
59168;BME280;44948;55.046;73.266;2023-04-07T09:33:48;100810.88;;;-3.19;42.36
59168;BME280;44948;55.046;73.266;2023-04-07T09:36:50;100820.22;;;-3.05;43.05
59168;BME280;44948;55.046;73.266;2023-04-07T09:40:32;100836.09;;;-2.50;42.60
59168;BME280;44948;55.046;73.266;2023-04-07T09:43:45;100833.72;;;-2.76;41.72
59168;BME280;44948;55.046;73.266;2023-04-07T09:46:51;100834.66;;;-2.91;40.78
59168;BME280;44948;55.046;73.266;2023-04-07T09:50:49;100835.47;;;-2.83;39.54
59168;BME280;44948;55.046;73.266;2023-04-07T09:53:52;100847.47;;;-2.85;41.62
59168;BME280;44948;55.046;73.266;2023-04-07T09:56:55;100843.28;;;-2.98;40.97
59168;BME280;44948;55.046;73.266;2023-04-07T10:00:31;100845.84;;;-2.98;39.99
59168;BME280;44948;55.046;73.266;2023-04-07T10:03:34;100848.50;;;-3.13;41.01
59168;BME280;44948;55.046;73.266;2023-04-07T10:06:47;100857.06;;;-3.16;41.75
59168;BME280;44948;55.046;73.266;2023-04-07T10:10:31;100855.78;;;-2.49;41.60
59168;BME280;44948;55.046;73.266;2023-04-07T10:13:36;100855.03;;;-2.69;40.80
59168;BME280;44948;55.046;73.266;2023-04-07T10:16:48;100866.28;;;-2.86;41.16
59168;BME280;44948;55.046;73.266;2023-04-07T10:20:32;100885.00;;;-2.65;40.59
59168;BME280;44948;55.046;73.266;2023-04-07T10:27:05;100891.31;;;-3.24;40.71
59168;BME280;44948;55.046;73.266;2023-04-07T10:30:31;100895.69;;;-3.45;39.29
59168;BME280;44948;55.046;73.266;2023-04-07T10:33:52;100895.69;;;-3.45;40.50
59168;BME280;44948;55.046;73.266;2023-04-07T10:37:09;100891.41;;;-3.44;40.49
59168;BME280;44948;55.046;73.266;2023-04-07T10:40:31;100903.38;;;-3.46;40.23
59168;BME280;44948;55.046;73.266;2023-04-07T10:43:40;100912.75;;;-3.40;40.07
59168;BME280;44948;55.046;73.266;2023-04-07T10:47:02;100917.03;;;-3.35;40.15
59168;BME280;44948;55.046;73.266;2023-04-07T10:50:31;100906.66;;;-3.10;39.41
59168;BME280;44948;55.046;73.266;2023-04-07T10:53:33;100922.00;;;-3.06;41.12
59168;BME280;44948;55.046;73.266;2023-04-07T11:00:31;100930.69;;;-3.36;39.39
59168;BME280;44948;55.046;73.266;2023-04-07T11:03:38;100934.97;;;-3.39;38.85
59168;BME280;44948;55.046;73.266;2023-04-07T11:06:47;100946.91;;;-3.35;38.36
59168;BME280;44948;55.046;73.266;2023-04-07T11:10:32;100950.19;;;-2.95;38.03
59168;BME280;44948;55.046;73.266;2023-04-07T11:13:49;100959.75;;;-3.34;38.71
59168;BME280;44948;55.046;73.266;2023-04-07T11:16:52;100926.53;;;-3.67;37.41
59168;BME280;44948;55.046;73.266;2023-04-07T11:20:43;100971.75;;;-3.45;37.40
59168;BME280;44948;55.046;73.266;2023-04-07T11:23:46;100961.53;;;-3.69;37.61
59168;BME280;44948;55.046;73.266;2023-04-07T11:26:51;100962.34;;;-3.54;37.38
59168;BME280;44948;55.046;73.266;2023-04-07T11:30:31;100966.53;;;-3.19;36.00
59168;BME280;44948;55.046;73.266;2023-04-07T11:33:34;100968.22;;;-3.07;36.11
59168;BME280;44948;55.046;73.266;2023-04-07T11:36:40;100970.84;;;-3.24;34.85
59168;BME280;44948;55.046;73.266;2023-04-07T11:39:43;100979.44;;;-3.33;36.02
59168;BME280;44948;55.046;73.266;2023-04-07T11:42:48;100968.25;;;-3.23;36.50
59168;BME280;44948;55.046;73.266;2023-04-07T11:46:10;100975.06;;;-3.11;36.18
59168;BME280;44948;55.046;73.266;2023-04-07T11:49:14;100980.19;;;-3.08;35.86
59168;BME280;44948;55.046;73.266;2023-04-07T11:52:17;100987.84;;;-3.03;36.33
59168;BME280;44948;55.046;73.266;2023-04-07T11:55:31;100995.66;;;-3.32;35.63
59168;BME280;44948;55.046;73.266;2023-04-07T11:58:47;100995.69;;;-3.48;35.89
59168;BME280;44948;55.046;73.266;2023-04-07T12:01:51;100999.09;;;-3.35;36.50
59168;BME280;44948;55.046;73.266;2023-04-07T12:05:42;101001.59;;;-3.15;36.34
59168;BME280;44948;55.046;73.266;2023-04-07T12:08:49;101012.78;;;-3.40;36.48
59168;BME280;44948;55.046;73.266;2023-04-07T12:11:51;101012.81;;;-3.50;37.00
59168;BME280;44948;55.046;73.266;2023-04-07T12:15:32;101020.44;;;-3.16;36.65
59168;BME280;44948;55.046;73.266;2023-04-07T12:18:37;101023.06;;;-3.59;35.78
59168;BME280;44948;55.046;73.266;2023-04-07T12:21:40;101030.75;;;-3.80;35.87
59168;BME280;44948;55.046;73.266;2023-04-07T12:24:42;101023.06;;;-3.65;36.79
59168;BME280;44948;55.046;73.266;2023-04-07T12:27:45;101041.88;;;-3.78;36.00
59168;BME280;44948;55.046;73.266;2023-04-07T12:30:47;101042.72;;;-3.97;35.71
59168;BME280;44948;55.046;73.266;2023-04-07T12:33:50;101042.72;;;-3.79;35.91
59168;BME280;44948;55.046;73.266;2023-04-07T12:36:57;101040.16;;;-3.99;36.30
59168;BME280;44948;55.046;73.266;2023-04-07T12:40:31;101048.69;;;-3.71;35.62
59168;BME280;44948;55.046;73.266;2023-04-07T12:43:35;101052.09;;;-4.13;35.74
59168;BME280;44948;55.046;73.266;2023-04-07T12:46:47;101050.38;;;-4.14;35.66
59168;BME280;44948;55.046;73.266;2023-04-07T12:50:31;101053.81;;;-3.94;35.53
59168;BME280;44948;55.046;73.266;2023-04-07T12:53:34;101054.63;;;-4.19;35.68
59168;BME280;44948;55.046;73.266;2023-04-07T12:56:46;101032.38;;;-4.46;35.91
59168;BME280;44948;55.046;73.266;2023-04-07T13:00:31;101072.59;;;-4.10;35.82
59168;BME280;44948;55.046;73.266;2023-04-07T13:03:34;101072.44;;;-4.53;35.39
59168;BME280;44948;55.046;73.266;2023-04-07T13:06:37;101085.22;;;-4.67;36.68
59168;BME280;44948;55.046;73.266;2023-04-07T13:09:40;101085.16;;;-4.76;36.52
59168;BME280;44948;55.046;73.266;2023-04-07T13:12:44;101113.31;;;-4.80;36.85
59168;BME280;44948;55.046;73.266;2023-04-07T13:15:46;101093.53;;;-5.07;36.60
59168;BME280;44948;55.046;73.266;2023-04-07T13:18:49;101100.28;;;-5.18;36.51
59168;BME280;44948;55.046;73.266;2023-04-07T13:21:55;101108.75;;;-5.26;36.70
59168;BME280;44948;55.046;73.266;2023-04-07T13:25:31;101117.34;;;-5.17;35.28
59168;BME280;44948;55.046;73.266;2023-04-07T13:28:34;101123.25;;;-5.26;37.77
59168;BME280;44948;55.046;73.266;2023-04-07T13:31:44;101127.34;;;-5.45;37.14
59168;BME280;44948;55.046;73.266;2023-04-07T13:35:31;101139.28;;;-5.44;36.62
59168;BME280;44948;55.046;73.266;2023-04-07T13:38:36;101148.41;;;-5.70;36.96
59168;BME280;44948;55.046;73.266;2023-04-07T13:41:39;101133.84;;;-5.80;37.97
59168;BME280;44948;55.046;73.266;2023-04-07T13:44:42;101100.34;;;-6.09;38.08
59168;BME280;44948;55.046;73.266;2023-04-07T13:47:47;101155.81;;;-5.98;37.98
59168;BME280;44948;55.046;73.266;2023-04-07T13:50:53;101151.50;;;-6.03;38.56
59168;BME280;44948;55.046;73.266;2023-04-07T13:53:56;101144.59;;;-6.13;39.26
59168;BME280;44948;55.046;73.266;2023-04-07T13:57:00;101165.88;;;-6.13;39.92
59168;BME280;44948;55.046;73.266;2023-04-07T14:00:31;101174.19;;;-6.29;39.96
59168;BME280;44948;55.046;73.266;2023-04-07T14:03:35;101184.19;;;-6.45;39.93
59168;BME280;44948;55.046;73.266;2023-04-07T14:06:38;101185.09;;;-6.41;39.40
59168;BME280;44948;55.046;73.266;2023-04-07T14:09:40;101185.88;;;-6.47;37.84
59168;BME280;44948;55.046;73.266;2023-04-07T14:12:43;101194.28;;;-6.54;38.70
59168;BME280;44948;55.046;73.266;2023-04-07T14:15:51;101200.31;;;-6.49;39.06
59168;BME280;44948;55.046;73.266;2023-04-07T14:18:59;101201.91;;;-6.55;38.84
59168;BME280;44948;55.046;73.266;2023-04-07T14:22:02;101215.56;;;-6.53;38.47
59168;BME280;44948;55.046;73.266;2023-04-07T14:25:31;101224.59;;;-6.75;37.51
59168;BME280;44948;55.046;73.266;2023-04-07T14:28:33;101225.44;;;-6.75;37.25
59168;BME280;44948;55.046;73.266;2023-04-07T14:31:35;101227.13;;;-6.75;37.96
59168;BME280;44948;55.046;73.266;2023-04-07T14:34:38;101235.50;;;-6.85;38.15
59168;BME280;44948;55.046;73.266;2023-04-07T14:37:46;101231.16;;;-6.92;37.04
59168;BME280;44948;55.046;73.266;2023-04-07T14:40:48;101236.28;;;-6.91;37.39
59168;BME280;44948;55.046;73.266;2023-04-07T14:43:56;101242.22;;;-6.92;37.95
59168;BME280;44948;55.046;73.266;2023-04-07T14:46:59;101242.16;;;-6.96;38.33
59168;BME280;44948;55.046;73.266;2023-04-07T14:50:32;101253.41;;;-6.81;37.77
59168;BME280;44948;55.046;73.266;2023-04-07T14:53:44;101256.66;;;-6.89;38.67
59168;BME280;44948;55.046;73.266;2023-04-07T14:56:46;101252.25;;;-7.04;38.36
59168;BME280;44948;55.046;73.266;2023-04-07T15:00:31;101259.69;;;-6.60;38.66
59168;BME280;44948;55.046;73.266;2023-04-07T15:03:39;101260.13;;;-6.87;38.26
59168;BME280;44948;55.046;73.266;2023-04-07T15:06:41;101271.88;;;-6.98;38.97
59168;BME280;44948;55.046;73.266;2023-04-07T15:09:46;101265.06;;;-6.99;39.46
59168;BME280;44948;55.046;73.266;2023-04-07T15:12:48;101287.09;;;-7.04;38.86
59168;BME280;44948;55.046;73.266;2023-04-07T15:15:54;101291.97;;;-7.15;37.08
59168;BME280;44948;55.046;73.266;2023-04-07T15:18:56;101258.38;;;-7.41;37.54
59168;BME280;44948;55.046;73.266;2023-04-07T15:22:03;101307.22;;;-7.20;37.99
59168;BME280;44948;55.046;73.266;2023-04-07T15:25:31;101300.59;;;-7.09;38.00
59168;BME280;44948;55.046;73.266;2023-04-07T15:28:43;101315.84;;;-7.12;38.67
59168;BME280;44948;55.046;73.266;2023-04-07T15:31:51;101315.78;;;-7.15;39.04
59168;BME280;44948;55.046;73.266;2023-04-07T15:35:31;101309.53;;;-6.82;39.30
59168;BME280;44948;55.046;73.266;2023-04-07T15:38:34;101329.53;;;-7.05;39.78
59168;BME280;44948;55.046;73.266;2023-04-07T15:41:37;101329.38;;;-7.16;39.92
59168;BME280;44948;55.046;73.266;2023-04-07T15:44:39;101333.47;;;-7.22;39.48
59168;BME280;44948;55.046;73.266;2023-04-07T15:47:52;101346.75;;;-7.39;38.94
59168;BME280;44948;55.046;73.266;2023-04-07T15:51:03;101350.19;;;-7.38;38.00
59168;BME280;44948;55.046;73.266;2023-04-07T15:54:06;101349.28;;;-7.40;36.97
59168;BME280;44948;55.046;73.266;2023-04-07T15:57:13;101364.34;;;-7.52;37.53
59168;BME280;44948;55.046;73.266;2023-04-07T16:00:32;101357.22;;;-7.69;37.97
59168;BME280;44948;55.046;73.266;2023-04-07T16:03:34;101367.41;;;-7.69;37.75
59168;BME280;44948;55.046;73.266;2023-04-07T16:06:37;101359.06;;;-7.61;38.56
59168;BME280;44948;55.046;73.266;2023-04-07T16:09:45;101368.34;;;-7.63;39.20
59168;BME280;44948;55.046;73.266;2023-04-07T16:12:48;101379.44;;;-7.61;39.52
59168;BME280;44948;55.046;73.266;2023-04-07T16:15:58;101375.94;;;-7.67;39.29
59168;BME280;44948;55.046;73.266;2023-04-07T16:19:00;101398.84;;;-7.68;39.18
59168;BME280;44948;55.046;73.266;2023-04-07T16:22:02;101398.09;;;-7.62;38.55
59168;BME280;44948;55.046;73.266;2023-04-07T16:25:31;101400.88;;;-7.89;38.13
59168;BME280;44948;55.046;73.266;2023-04-07T16:28:33;101389.03;;;-7.89;38.24
59168;BME280;44948;55.046;73.266;2023-04-07T16:31:36;101395.06;;;-7.85;38.14
59168;BME280;44948;55.046;73.266;2023-04-07T16:34:38;101355.50;;;-8.07;38.34
59168;BME280;44948;55.046;73.266;2023-04-07T16:37:42;101411.91;;;-7.90;38.25
59168;BME280;44948;55.046;73.266;2023-04-07T16:40:46;101387.94;;;-8.00;38.48
59168;BME280;44948;55.046;73.266;2023-04-07T16:43:48;101422.06;;;-7.92;38.26